sensor_id;sensor_type;location;lat;lon;timestamp;pressure;altitude;pressure_sealevel;temperature;humidity
65394;BME280;52002;49.760;6.512;2023-12-28T00:00:38;99913.13;;;6.68;73.29
65394;BME280;52002;49.760;6.512;2023-12-28T00:03:03;99918.70;;;6.69;73.17
65394;BME280;52002;49.760;6.512;2023-12-28T00:05:29;99919.34;;;6.70;73.13
65394;BME280;52002;49.760;6.512;2023-12-28T00:07:54;99915.08;;;6.70;72.79
65394;BME280;52002;49.760;6.512;2023-12-28T00:10:27;99914.98;;;6.71;72.92
65394;BME280;52002;49.760;6.512;2023-12-28T00:12:53;99919.29;;;6.73;72.28
65394;BME280;52002;49.760;6.512;2023-12-28T00:15:19;99928.39;;;6.75;72.28
65394;BME280;52002;49.760;6.512;2023-12-28T00:17:45;99919.04;;;6.76;72.36
65394;BME280;52002;49.760;6.512;2023-12-28T00:20:12;99925.95;;;6.78;72.14
65394;BME280;52002;49.760;6.512;2023-12-28T00:22:37;99932.86;;;6.81;72.11
65394;BME280;52002;49.760;6.512;2023-12-28T00:25:06;99933.98;;;6.82;71.99
65394;BME280;52002;49.760;6.512;2023-12-28T00:27:32;99937.77;;;6.84;71.90
65394;BME280;52002;49.760;6.512;2023-12-28T00:29:59;99941.02;;;6.86;71.95
65394;BME280;52002;49.760;6.512;2023-12-28T00:32:25;99946.11;;;6.86;71.85
65394;BME280;52002;49.760;6.512;2023-12-28T00:34:51;99944.82;;;6.87;71.85
65394;BME280;52002;49.760;6.512;2023-12-28T00:37:16;99950.77;;;6.88;71.75
65394;BME280;52002;49.760;6.512;2023-12-28T00:39:42;99954.15;;;6.88;72.03
65394;BME280;52002;49.760;6.512;2023-12-28T00:42:07;99951.67;;;6.88;72.32
65394;BME280;52002;49.760;6.512;2023-12-28T00:44:33;99952.63;;;6.87;72.46
65394;BME280;52002;49.760;6.512;2023-12-28T00:46:58;99962.80;;;6.85;72.71
65394;BME280;52002;49.760;6.512;2023-12-28T00:49:23;99973.20;;;6.83;72.85
65394;BME280;52002;49.760;6.512;2023-12-28T00:51:49;99974.02;;;6.82;72.93
65394;BME280;52002;49.760;6.512;2023-12-28T00:54:14;99979.27;;;6.80;73.03
65394;BME280;52002;49.760;6.512;2023-12-28T00:56:40;99973.70;;;6.79;73.30
65394;BME280;52002;49.760;6.512;2023-12-28T00:59:05;99979.70;;;6.79;73.41
65394;BME280;52002;49.760;6.512;2023-12-28T01:01:30;99990.48;;;6.79;73.89
65394;BME280;52002;49.760;6.512;2023-12-28T01:03:56;99989.16;;;6.80;73.70
65394;BME280;52002;49.760;6.512;2023-12-28T01:06:22;99991.48;;;6.80;73.81
65394;BME280;52002;49.760;6.512;2023-12-28T01:08:47;99993.34;;;6.81;74.11
65394;BME280;52002;49.760;6.512;2023-12-28T01:11:12;99992.65;;;6.81;74.36
65394;BME280;52002;49.760;6.512;2023-12-28T01:13:38;99994.54;;;6.82;74.56
65394;BME280;52002;49.760;6.512;2023-12-28T01:16:04;99999.56;;;6.81;74.99
65394;BME280;52002;49.760;6.512;2023-12-28T01:18:29;100004.90;;;6.80;75.43
65394;BME280;52002;49.760;6.512;2023-12-28T01:20:54;100006.52;;;6.80;75.54
65394;BME280;52002;49.760;6.512;2023-12-28T01:23:20;100008.66;;;6.80;75.97
65394;BME280;52002;49.760;6.512;2023-12-28T01:25:45;100015.55;;;6.80;76.49
65394;BME280;52002;49.760;6.512;2023-12-28T01:28:11;100013.86;;;6.79;76.99
65394;BME280;52002;49.760;6.512;2023-12-28T01:30:36;100010.51;;;6.79;77.44
65394;BME280;52002;49.760;6.512;2023-12-28T01:33:02;100011.34;;;6.79;77.60
65394;BME280;52002;49.760;6.512;2023-12-28T01:35:27;100024.11;;;6.81;78.06
65394;BME280;52002;49.760;6.512;2023-12-28T01:37:52;100029.48;;;6.83;78.36
65394;BME280;52002;49.760;6.512;2023-12-28T01:40:18;100023.06;;;6.83;78.85
65394;BME280;52002;49.760;6.512;2023-12-28T01:42:45;100024.54;;;6.83;78.90
65394;BME280;52002;49.760;6.512;2023-12-28T01:45:10;100022.62;;;6.82;79.13
65394;BME280;52002;49.760;6.512;2023-12-28T01:47:35;100020.92;;;6.81;79.61
65394;BME280;52002;49.760;6.512;2023-12-28T01:50:01;100026.28;;;6.78;79.73
65394;BME280;52002;49.760;6.512;2023-12-28T01:52:28;100042.86;;;6.77;80.22
65394;BME280;52002;49.760;6.512;2023-12-28T01:54:54;100055.43;;;6.76;80.46
65394;BME280;52002;49.760;6.512;2023-12-28T01:57:20;100037.16;;;6.77;80.86
65394;BME280;52002;49.760;6.512;2023-12-28T01:59:45;100035.05;;;6.79;81.06
65394;BME280;52002;49.760;6.512;2023-12-28T02:02:11;100041.79;;;6.81;81.11
65394;BME280;52002;49.760;6.512;2023-12-28T02:04:37;100047.59;;;6.85;81.34
65394;BME280;52002;49.760;6.512;2023-12-28T02:07:02;100051.45;;;6.88;81.55
65394;BME280;52002;49.760;6.512;2023-12-28T02:09:28;100043.86;;;6.90;81.99
65394;BME280;52002;49.760;6.512;2023-12-28T02:11:54;100042.34;;;6.94;82.27
65394;BME280;52002;49.760;6.512;2023-12-28T02:14:20;100043.09;;;6.95;82.29
65394;BME280;52002;49.760;6.512;2023-12-28T02:17:13;100047.14;;;6.98;82.49
65394;BME280;52002;49.760;6.512;2023-12-28T02:19:49;100071.58;;;7.01;82.69
65394;BME280;52002;49.760;6.512;2023-12-28T02:22:15;100075.05;;;7.04;82.91
65394;BME280;52002;49.760;6.512;2023-12-28T02:25:10;100061.13;;;7.05;82.82
65394;BME280;52002;49.760;6.512;2023-12-28T02:27:43;100063.25;;;7.10;83.31
65394;BME280;52002;49.760;6.512;2023-12-28T02:30:14;100060.49;;;7.11;83.07
65394;BME280;52002;49.760;6.512;2023-12-28T02:35:43;100075.02;;;7.14;83.27
65394;BME280;52002;49.760;6.512;2023-12-28T02:38:10;100067.48;;;7.16;83.46
65394;BME280;52002;49.760;6.512;2023-12-28T02:40:38;100050.89;;;7.17;83.37
65394;BME280;52002;49.760;6.512;2023-12-28T02:43:07;100059.61;;;7.19;83.48
65394;BME280;52002;49.760;6.512;2023-12-28T02:45:33;100060.08;;;7.20;83.57
65394;BME280;52002;49.760;6.512;2023-12-28T02:47:59;100062.23;;;7.22;83.74
65394;BME280;52002;49.760;6.512;2023-12-28T02:50:24;100061.52;;;7.24;83.92
65394;BME280;52002;49.760;6.512;2023-12-28T02:52:49;100061.05;;;7.26;83.98
65394;BME280;52002;49.760;6.512;2023-12-28T02:55:15;100052.52;;;7.29;84.15
65394;BME280;52002;49.760;6.512;2023-12-28T02:57:40;100049.15;;;7.31;84.13
65394;BME280;52002;49.760;6.512;2023-12-28T03:00:06;100054.98;;;7.34;84.36
65394;BME280;52002;49.760;6.512;2023-12-28T03:02:35;100050.92;;;7.36;84.29
65394;BME280;52002;49.760;6.512;2023-12-28T03:05:01;100056.37;;;7.39;84.58
65394;BME280;52002;49.760;6.512;2023-12-28T03:07:26;100056.39;;;7.41;84.49
65394;BME280;52002;49.760;6.512;2023-12-28T03:09:52;100057.84;;;7.43;84.44
65394;BME280;52002;49.760;6.512;2023-12-28T03:12:17;100060.48;;;7.46;84.51
65394;BME280;52002;49.760;6.512;2023-12-28T03:14:43;100046.65;;;7.48;84.75
65394;BME280;52002;49.760;6.512;2023-12-28T03:17:08;100041.90;;;7.50;84.68
65394;BME280;52002;49.760;6.512;2023-12-28T03:19:36;100039.16;;;7.51;84.64
65394;BME280;52002;49.760;6.512;2023-12-28T03:22:01;100041.67;;;7.53;84.69
65394;BME280;52002;49.760;6.512;2023-12-28T03:24:27;100046.35;;;7.54;84.64
65394;BME280;52002;49.760;6.512;2023-12-28T03:26:52;100041.17;;;7.55;84.83
65394;BME280;52002;49.760;6.512;2023-12-28T03:29:17;100033.48;;;7.56;84.81
65394;BME280;52002;49.760;6.512;2023-12-28T03:31:43;100018.89;;;7.57;84.79
65394;BME280;52002;49.760;6.512;2023-12-28T03:34:08;100028.71;;;7.58;85.03
65394;BME280;52002;49.760;6.512;2023-12-28T03:36:34;100025.89;;;7.60;84.91
65394;BME280;52002;49.760;6.512;2023-12-28T03:38:59;100015.00;;;7.62;85.22
65394;BME280;52002;49.760;6.512;2023-12-28T03:41:24;100021.86;;;7.62;85.14
65394;BME280;52002;49.760;6.512;2023-12-28T03:43:50;100014.73;;;7.63;85.06
65394;BME280;52002;49.760;6.512;2023-12-28T03:46:15;100016.77;;;7.64;85.15
65394;BME280;52002;49.760;6.512;2023-12-28T03:48:40;100015.30;;;7.65;85.07
65394;BME280;52002;49.760;6.512;2023-12-28T03:51:06;100017.34;;;7.66;85.18
65394;BME280;52002;49.760;6.512;2023-12-28T03:53:32;100014.73;;;7.68;85.21
65394;BME280;52002;49.760;6.512;2023-12-28T03:56:00;100020.56;;;7.70;85.24
65394;BME280;52002;49.760;6.512;2023-12-28T03:58:26;100019.91;;;7.71;85.11
65394;BME280;52002;49.760;6.512;2023-12-28T04:00:52;100023.73;;;7.72;85.37
65394;BME280;52002;49.760;6.512;2023-12-28T04:03:18;100025.39;;;7.74;85.26
65394;BME280;52002;49.760;6.512;2023-12-28T04:05:43;100027.79;;;7.75;85.18
65394;BME280;52002;49.760;6.512;2023-12-28T04:08:09;100033.14;;;7.77;85.34
65394;BME280;52002;49.760;6.512;2023-12-28T04:10:35;100043.22;;;7.80;85.30
65394;BME280;52002;49.760;6.512;2023-12-28T04:13:03;100042.27;;;7.83;85.30
65394;BME280;52002;49.760;6.512;2023-12-28T04:15:29;100043.67;;;7.85;85.21
65394;BME280;52002;49.760;6.512;2023-12-28T04:17:55;100039.06;;;7.88;85.27
65394;BME280;52002;49.760;6.512;2023-12-28T04:20:20;100042.45;;;7.90;85.18
65394;BME280;52002;49.760;6.512;2023-12-28T04:22:46;100035.46;;;7.91;85.11
65394;BME280;52002;49.760;6.512;2023-12-28T04:25:11;100034.27;;;7.90;85.03
65394;BME280;52002;49.760;6.512;2023-12-28T04:27:38;100030.61;;;7.89;84.95
65394;BME280;52002;49.760;6.512;2023-12-28T04:30:04;100026.80;;;7.88;84.91
65394;BME280;52002;49.760;6.512;2023-12-28T04:32:33;100027.42;;;7.87;85.02
65394;BME280;52002;49.760;6.512;2023-12-28T04:34:58;100022.20;;;7.85;84.82
65394;BME280;52002;49.760;6.512;2023-12-28T04:37:24;100022.95;;;7.85;85.00
65394;BME280;52002;49.760;6.512;2023-12-28T04:39:52;100029.41;;;7.86;85.05
65394;BME280;52002;49.760;6.512;2023-12-28T04:42:18;100027.04;;;7.87;85.18
65394;BME280;52002;49.760;6.512;2023-12-28T04:44:44;100028.67;;;7.89;85.47
65394;BME280;52002;49.760;6.512;2023-12-28T04:47:09;100032.61;;;7.91;85.40
65394;BME280;52002;49.760;6.512;2023-12-28T04:49:35;100030.98;;;7.91;85.21
65394;BME280;52002;49.760;6.512;2023-12-28T04:52:00;100025.08;;;7.92;85.37
65394;BME280;52002;49.760;6.512;2023-12-28T04:54:25;100019.40;;;7.92;85.31
65394;BME280;52002;49.760;6.512;2023-12-28T04:56:51;100017.67;;;7.94;85.37
65394;BME280;52002;49.760;6.512;2023-12-28T04:59:16;100019.11;;;7.96;85.58
65394;BME280;52002;49.760;6.512;2023-12-28T05:01:45;100017.38;;;7.98;85.47
65394;BME280;52002;49.760;6.512;2023-12-28T05:04:11;100019.77;;;7.99;85.55
65394;BME280;52002;49.760;6.512;2023-12-28T05:06:37;100024.17;;;8.02;85.53
65394;BME280;52002;49.760;6.512;2023-12-28T05:09:03;100025.33;;;8.02;85.55
65394;BME280;52002;49.760;6.512;2023-12-28T05:11:30;100022.59;;;8.03;85.42
65394;BME280;52002;49.760;6.512;2023-12-28T05:13:55;100022.63;;;8.05;85.46
65394;BME280;52002;49.760;6.512;2023-12-28T05:16:20;100025.92;;;8.07;85.24
65394;BME280;52002;49.760;6.512;2023-12-28T05:18:46;100027.96;;;8.08;85.41
65394;BME280;52002;49.760;6.512;2023-12-28T05:21:12;100030.00;;;8.09;85.42
65394;BME280;52002;49.760;6.512;2023-12-28T05:23:37;100022.73;;;8.11;85.54
65394;BME280;52002;49.760;6.512;2023-12-28T05:26:03;100024.36;;;8.13;85.49
65394;BME280;52002;49.760;6.512;2023-12-28T05:28:28;100030.61;;;8.15;85.46
65394;BME280;52002;49.760;6.512;2023-12-28T05:30:54;100027.23;;;8.15;85.33
65394;BME280;52002;49.760;6.512;2023-12-28T05:33:19;100032.24;;;8.18;85.38
65394;BME280;52002;49.760;6.512;2023-12-28T05:35:45;100029.69;;;8.20;85.32
65394;BME280;52002;49.760;6.512;2023-12-28T05:38:10;100031.01;;;8.21;85.23
65394;BME280;52002;49.760;6.512;2023-12-28T05:40:35;100026.02;;;8.21;85.18
65394;BME280;52002;49.760;6.512;2023-12-28T05:43:01;100031.10;;;8.22;85.22
65394;BME280;52002;49.760;6.512;2023-12-28T05:45:26;100034.73;;;8.23;85.30
65394;BME280;52002;49.760;6.512;2023-12-28T05:47:52;100041.34;;;8.25;85.21
65394;BME280;52002;49.760;6.512;2023-12-28T05:50:17;100043.66;;;8.27;85.35
65394;BME280;52002;49.760;6.512;2023-12-28T05:52:43;100048.89;;;8.28;85.35
65394;BME280;52002;49.760;6.512;2023-12-28T05:55:08;100050.09;;;8.29;85.14
65394;BME280;52002;49.760;6.512;2023-12-28T05:57:33;100056.16;;;8.28;85.15
65394;BME280;52002;49.760;6.512;2023-12-28T05:59:59;100056.17;;;8.28;85.08
65394;BME280;52002;49.760;6.512;2023-12-28T06:02:24;100055.64;;;8.28;85.13
65394;BME280;52002;49.760;6.512;2023-12-28T06:04:49;100051.38;;;8.28;85.16
65394;BME280;52002;49.760;6.512;2023-12-28T06:07:15;100055.98;;;8.28;85.16
65394;BME280;52002;49.760;6.512;2023-12-28T06:09:41;100059.91;;;8.28;85.22
65394;BME280;52002;49.760;6.512;2023-12-28T06:12:07;100064.85;;;8.28;85.14
65394;BME280;52002;49.760;6.512;2023-12-28T06:14:33;100068.58;;;8.28;85.26
65394;BME280;52002;49.760;6.512;2023-12-28T06:16:58;100072.02;;;8.29;85.26
65394;BME280;52002;49.760;6.512;2023-12-28T06:19:23;100072.89;;;8.29;85.31
65394;BME280;52002;49.760;6.512;2023-12-28T06:21:49;100071.23;;;8.30;85.34
65394;BME280;52002;49.760;6.512;2023-12-28T06:24:15;100069.77;;;8.31;85.34
65394;BME280;52002;49.760;6.512;2023-12-28T06:26:44;100069.51;;;8.32;85.31
65394;BME280;52002;49.760;6.512;2023-12-28T06:29:10;100070.33;;;8.33;85.39
65394;BME280;52002;49.760;6.512;2023-12-28T06:31:36;100065.65;;;8.33;85.27
65394;BME280;52002;49.760;6.512;2023-12-28T06:34:03;100064.90;;;8.34;85.35
65394;BME280;52002;49.760;6.512;2023-12-28T06:36:29;100063.93;;;8.33;85.32
65394;BME280;52002;49.760;6.512;2023-12-28T06:38:54;100069.89;;;8.31;85.42
65394;BME280;52002;49.760;6.512;2023-12-28T06:41:20;100067.84;;;8.30;85.43
65394;BME280;52002;49.760;6.512;2023-12-28T06:43:45;100071.04;;;8.31;85.39
65394;BME280;52002;49.760;6.512;2023-12-28T06:46:10;100073.29;;;8.29;85.52
65394;BME280;52002;49.760;6.512;2023-12-28T06:48:36;100071.73;;;8.29;85.58
65394;BME280;52002;49.760;6.512;2023-12-28T06:51:04;100067.30;;;8.28;85.74
65394;BME280;52002;49.760;6.512;2023-12-28T06:53:30;100068.02;;;8.28;85.67
65394;BME280;52002;49.760;6.512;2023-12-28T06:55:55;100073.11;;;8.29;85.83
65394;BME280;52002;49.760;6.512;2023-12-28T06:58:21;100072.37;;;8.29;85.89
65394;BME280;52002;49.760;6.512;2023-12-28T07:00:46;100079.06;;;8.30;85.83
65394;BME280;52002;49.760;6.512;2023-12-28T07:03:11;100082.71;;;8.31;85.77
65394;BME280;52002;49.760;6.512;2023-12-28T07:05:37;100084.77;;;8.32;85.86
65394;BME280;52002;49.760;6.512;2023-12-28T07:08:03;100084.65;;;8.33;85.93
65394;BME280;52002;49.760;6.512;2023-12-28T07:10:28;100091.44;;;8.35;85.86
65394;BME280;52002;49.760;6.512;2023-12-28T07:12:53;100090.27;;;8.37;85.94
65394;BME280;52002;49.760;6.512;2023-12-28T07:15:21;100088.78;;;8.38;85.89
65394;BME280;52002;49.760;6.512;2023-12-28T07:17:47;100093.37;;;8.38;85.81
65394;BME280;52002;49.760;6.512;2023-12-28T07:20:12;100091.98;;;8.40;85.89
65394;BME280;52002;49.760;6.512;2023-12-28T07:22:38;100082.84;;;8.41;85.85
65394;BME280;52002;49.760;6.512;2023-12-28T07:25:07;100081.52;;;8.42;85.81
65394;BME280;52002;49.760;6.512;2023-12-28T07:27:33;100078.36;;;8.41;85.63
65394;BME280;52002;49.760;6.512;2023-12-28T07:29:59;100075.43;;;8.40;85.60
65394;BME280;52002;49.760;6.512;2023-12-28T07:32:25;100070.80;;;8.38;85.51
65394;BME280;52002;49.760;6.512;2023-12-28T07:34:53;100068.79;;;8.37;85.44
65394;BME280;52002;49.760;6.512;2023-12-28T07:37:19;100061.92;;;8.36;85.50
65394;BME280;52002;49.760;6.512;2023-12-28T07:39:44;100066.91;;;8.36;85.57
65394;BME280;52002;49.760;6.512;2023-12-28T07:42:09;100071.92;;;8.35;85.49
65394;BME280;52002;49.760;6.512;2023-12-28T07:44:35;100078.60;;;8.36;85.54
65394;BME280;52002;49.760;6.512;2023-12-28T07:47:00;100085.54;;;8.38;85.55
65394;BME280;52002;49.760;6.512;2023-12-28T07:49:26;100089.70;;;8.39;85.46
65394;BME280;52002;49.760;6.512;2023-12-28T07:51:51;100090.36;;;8.40;85.37
65394;BME280;52002;49.760;6.512;2023-12-28T07:54:17;100086.83;;;8.42;85.44
65394;BME280;52002;49.760;6.512;2023-12-28T07:56:42;100085.07;;;8.44;85.24
65394;BME280;52002;49.760;6.512;2023-12-28T07:59:08;100089.52;;;8.46;85.24
65394;BME280;52002;49.760;6.512;2023-12-28T08:01:35;100089.05;;;8.48;85.12
65394;BME280;52002;49.760;6.512;2023-12-28T08:04:00;100090.69;;;8.50;85.13
65394;BME280;52002;49.760;6.512;2023-12-28T08:06:28;100086.42;;;8.50;84.95
65394;BME280;52002;49.760;6.512;2023-12-28T08:08:54;100092.27;;;8.50;84.90
65394;BME280;52002;49.760;6.512;2023-12-28T08:11:20;100094.15;;;8.51;84.88
65394;BME280;52002;49.760;6.512;2023-12-28T08:13:45;100095.91;;;8.53;84.84
65394;BME280;52002;49.760;6.512;2023-12-28T08:16:12;100102.05;;;8.56;84.72
65394;BME280;52002;49.760;6.512;2023-12-28T08:18:37;100105.70;;;8.59;84.58
65394;BME280;52002;49.760;6.512;2023-12-28T08:21:03;100109.16;;;8.63;84.43
65394;BME280;52002;49.760;6.512;2023-12-28T08:23:28;100112.54;;;8.66;84.38
65394;BME280;52002;49.760;6.512;2023-12-28T08:25:54;100110.26;;;8.70;84.30
65394;BME280;52002;49.760;6.512;2023-12-28T08:28:19;100106.37;;;8.74;84.29
65394;BME280;52002;49.760;6.512;2023-12-28T08:30:44;100109.49;;;8.77;84.04
65394;BME280;52002;49.760;6.512;2023-12-28T08:33:10;100108.38;;;8.82;84.02
65394;BME280;52002;49.760;6.512;2023-12-28T08:35:35;100110.77;;;8.89;83.70
65394;BME280;52002;49.760;6.512;2023-12-28T08:38:00;100115.52;;;8.97;83.80
65394;BME280;52002;49.760;6.512;2023-12-28T08:40:26;100113.34;;;9.00;83.72
65394;BME280;52002;49.760;6.512;2023-12-28T08:42:51;100111.30;;;9.01;83.47
65394;BME280;52002;49.760;6.512;2023-12-28T08:45:17;100104.73;;;9.03;83.46
65394;BME280;52002;49.760;6.512;2023-12-28T08:47:42;100109.04;;;9.05;83.33
65394;BME280;52002;49.760;6.512;2023-12-28T08:50:08;100108.32;;;9.07;83.22
65394;BME280;52002;49.760;6.512;2023-12-28T08:52:33;100111.65;;;9.08;83.15
65394;BME280;52002;49.760;6.512;2023-12-28T08:54:59;100115.80;;;9.09;83.19
65394;BME280;52002;49.760;6.512;2023-12-28T08:57:26;100120.75;;;9.09;83.22
65394;BME280;52002;49.760;6.512;2023-12-28T08:59:51;100121.43;;;9.10;83.22
65394;BME280;52002;49.760;6.512;2023-12-28T09:02:18;100127.36;;;9.11;83.14
65394;BME280;52002;49.760;6.512;2023-12-28T09:04:43;100127.18;;;9.13;83.23
65394;BME280;52002;49.760;6.512;2023-12-28T09:07:09;100131.22;;;9.16;83.31
65394;BME280;52002;49.760;6.512;2023-12-28T09:09:35;100138.22;;;9.20;83.13
65394;BME280;52002;49.760;6.512;2023-12-28T09:12:00;100139.64;;;9.22;83.03
65394;BME280;52002;49.760;6.512;2023-12-28T09:14:25;100140.92;;;9.23;83.00
65394;BME280;52002;49.760;6.512;2023-12-28T09:16:51;100142.29;;;9.24;82.62
65394;BME280;52002;49.760;6.512;2023-12-28T09:19:16;100145.61;;;9.25;82.65
65394;BME280;52002;49.760;6.512;2023-12-28T09:21:42;100144.61;;;9.29;82.41
65394;BME280;52002;49.760;6.512;2023-12-28T09:24:07;100143.85;;;9.32;82.30
65394;BME280;52002;49.760;6.512;2023-12-28T09:26:33;100142.48;;;9.37;82.35
65394;BME280;52002;49.760;6.512;2023-12-28T09:28:59;100142.27;;;9.46;82.06
65394;BME280;52002;49.760;6.512;2023-12-28T09:31:24;100142.70;;;9.52;82.06
65394;BME280;52002;49.760;6.512;2023-12-28T09:33:50;100146.30;;;9.60;81.98
65394;BME280;52002;49.760;6.512;2023-12-28T09:36:15;100144.36;;;9.69;81.80
65394;BME280;52002;49.760;6.512;2023-12-28T09:38:42;100145.39;;;9.73;81.56
65394;BME280;52002;49.760;6.512;2023-12-28T09:41:14;100145.89;;;9.76;81.54
65394;BME280;52002;49.760;6.512;2023-12-28T09:46:24;100156.45;;;9.82;80.81
65394;BME280;52002;49.760;6.512;2023-12-28T09:48:51;100155.51;;;9.84;80.64
65394;BME280;52002;49.760;6.512;2023-12-28T09:51:19;100157.59;;;9.87;80.44
65394;BME280;52002;49.760;6.512;2023-12-28T09:53:45;100155.09;;;9.87;80.46
65394;BME280;52002;49.760;6.512;2023-12-28T09:56:12;100151.75;;;9.87;80.33
65394;BME280;52002;49.760;6.512;2023-12-28T09:58:40;100152.91;;;9.88;80.55
65394;BME280;52002;49.760;6.512;2023-12-28T10:01:06;100155.48;;;9.90;80.33
65394;BME280;52002;49.760;6.512;2023-12-28T10:03:32;100147.05;;;9.90;80.24
65394;BME280;52002;49.760;6.512;2023-12-28T10:05:58;100153.51;;;9.91;80.21
65394;BME280;52002;49.760;6.512;2023-12-28T10:08:23;100154.46;;;9.95;80.17
65394;BME280;52002;49.760;6.512;2023-12-28T10:10:50;100152.15;;;9.97;79.94
65394;BME280;52002;49.760;6.512;2023-12-28T10:13:20;100149.27;;;10.02;80.05
65394;BME280;52002;49.760;6.512;2023-12-28T10:15:47;100144.67;;;10.08;79.96
65394;BME280;52002;49.760;6.512;2023-12-28T10:18:13;100145.72;;;10.12;79.56
65394;BME280;52002;49.760;6.512;2023-12-28T10:20:38;100144.48;;;10.21;79.61
65394;BME280;52002;49.760;6.512;2023-12-28T10:23:04;100146.91;;;10.26;79.50
65394;BME280;52002;49.760;6.512;2023-12-28T10:25:32;100146.55;;;10.28;79.52
65394;BME280;52002;49.760;6.512;2023-12-28T10:27:58;100146.61;;;10.27;79.33
65394;BME280;52002;49.760;6.512;2023-12-28T10:30:29;100150.44;;;10.30;79.30
65394;BME280;52002;49.760;6.512;2023-12-28T10:32:55;100151.30;;;10.30;79.28
65394;BME280;52002;49.760;6.512;2023-12-28T10:35:20;100148.91;;;10.29;79.24
65394;BME280;52002;49.760;6.512;2023-12-28T10:37:46;100147.83;;;10.36;78.98
65394;BME280;52002;49.760;6.512;2023-12-28T10:40:20;100147.84;;;10.44;79.05
65394;BME280;52002;49.760;6.512;2023-12-28T10:42:54;100141.19;;;10.51;79.12
65394;BME280;52002;49.760;6.512;2023-12-28T10:45:23;100141.27;;;10.55;78.63
65394;BME280;52002;49.760;6.512;2023-12-28T10:48:07;100137.50;;;10.63;78.56
65394;BME280;52002;49.760;6.512;2023-12-28T10:50:46;100137.55;;;10.73;78.49
65394;BME280;52002;49.760;6.512;2023-12-28T11:01:09;100123.36;;;10.89;77.62
65394;BME280;52002;49.760;6.512;2023-12-28T11:03:37;100123.78;;;10.90;77.52
65394;BME280;52002;49.760;6.512;2023-12-28T11:06:06;100120.98;;;10.93;77.36
65394;BME280;52002;49.760;6.512;2023-12-28T11:08:33;100113.44;;;10.96;77.53
65394;BME280;52002;49.760;6.512;2023-12-28T11:11:00;100113.66;;;10.96;77.30
65394;BME280;52002;49.760;6.512;2023-12-28T11:13:29;100108.13;;;10.94;77.04
65394;BME280;52002;49.760;6.512;2023-12-28T11:15:56;100107.92;;;10.94;76.95
65394;BME280;52002;49.760;6.512;2023-12-28T11:18:23;100100.92;;;11.01;76.74
65394;BME280;52002;49.760;6.512;2023-12-28T11:20:50;100095.34;;;11.18;76.48
65394;BME280;52002;49.760;6.512;2023-12-28T11:23:17;100093.14;;;11.30;76.39
65394;BME280;52002;49.760;6.512;2023-12-28T11:25:42;100094.97;;;11.35;76.29
65394;BME280;52002;49.760;6.512;2023-12-28T11:28:11;100091.58;;;11.40;75.95
65394;BME280;52002;49.760;6.512;2023-12-28T11:30:38;100088.49;;;11.40;75.92
65394;BME280;52002;49.760;6.512;2023-12-28T11:33:06;100090.92;;;11.31;75.99
65394;BME280;52002;49.760;6.512;2023-12-28T11:35:52;100079.98;;;11.20;76.13
65394;BME280;52002;49.760;6.512;2023-12-28T11:38:18;100080.34;;;11.18;76.13
65394;BME280;52002;49.760;6.512;2023-12-28T11:40:47;100071.95;;;11.16;76.32
65394;BME280;52002;49.760;6.512;2023-12-28T11:43:19;100071.80;;;11.10;76.23
65394;BME280;52002;49.760;6.512;2023-12-28T11:45:55;100069.39;;;10.99;76.85
65394;BME280;52002;49.760;6.512;2023-12-28T11:48:27;100071.13;;;10.97;76.92
65394;BME280;52002;49.760;6.512;2023-12-28T11:50:58;100070.15;;;10.98;76.85
65394;BME280;52002;49.760;6.512;2023-12-28T11:53:24;100065.00;;;10.92;76.99
65394;BME280;52002;49.760;6.512;2023-12-28T11:55:51;100068.34;;;10.89;77.18
65394;BME280;52002;49.760;6.512;2023-12-28T11:58:18;100060.61;;;10.92;77.13
65394;BME280;52002;49.760;6.512;2023-12-28T12:00:43;100059.79;;;10.94;77.20
65394;BME280;52002;49.760;6.512;2023-12-28T12:03:12;100057.42;;;11.05;77.03
65394;BME280;52002;49.760;6.512;2023-12-28T12:05:38;100057.60;;;11.09;77.16
65394;BME280;52002;49.760;6.512;2023-12-28T12:08:09;100053.44;;;11.10;76.99
65394;BME280;52002;49.760;6.512;2023-12-28T12:10:36;100048.96;;;11.14;77.00
65394;BME280;52002;49.760;6.512;2023-12-28T12:13:01;100049.88;;;11.10;76.93
65394;BME280;52002;49.760;6.512;2023-12-28T12:15:28;100052.87;;;11.06;76.96
65394;BME280;52002;49.760;6.512;2023-12-28T12:17:54;100055.34;;;11.13;76.97
65394;BME280;52002;49.760;6.512;2023-12-28T12:20:20;100048.21;;;11.22;76.73
65394;BME280;52002;49.760;6.512;2023-12-28T12:22:46;100046.19;;;11.17;76.71
65394;BME280;52002;49.760;6.512;2023-12-28T12:25:12;100047.05;;;11.08;76.95
65394;BME280;52002;49.760;6.512;2023-12-28T12:27:37;100039.67;;;11.01;77.22
65394;BME280;52002;49.760;6.512;2023-12-28T12:30:06;100043.54;;;10.91;77.36
65394;BME280;52002;49.760;6.512;2023-12-28T12:32:32;100040.91;;;10.83;77.45
65394;BME280;52002;49.760;6.512;2023-12-28T12:34:59;100042.07;;;10.77;77.60
65394;BME280;52002;49.760;6.512;2023-12-28T12:37:24;100039.86;;;10.74;77.98
65394;BME280;52002;49.760;6.512;2023-12-28T12:39:50;100035.16;;;10.79;78.02
65394;BME280;52002;49.760;6.512;2023-12-28T12:42:16;100038.89;;;10.83;78.03
65394;BME280;52002;49.760;6.512;2023-12-28T12:44:42;100031.38;;;10.92;78.18
65394;BME280;52002;49.760;6.512;2023-12-28T12:47:07;100031.17;;;10.98;78.31
65394;BME280;52002;49.760;6.512;2023-12-28T12:49:32;100027.87;;;11.03;77.97
65394;BME280;52002;49.760;6.512;2023-12-28T12:51:58;100022.85;;;11.05;77.99
65394;BME280;52002;49.760;6.512;2023-12-28T12:54:23;100020.08;;;11.06;77.99
65394;BME280;52002;49.760;6.512;2023-12-28T12:56:52;100017.13;;;11.08;77.76
65394;BME280;52002;49.760;6.512;2023-12-28T12:59:18;100019.80;;;11.06;77.73
65394;BME280;52002;49.760;6.512;2023-12-28T13:01:44;100020.08;;;11.09;77.92
65394;BME280;52002;49.760;6.512;2023-12-28T13:04:10;100021.69;;;11.19;77.79
65394;BME280;52002;49.760;6.512;2023-12-28T13:06:37;100020.67;;;11.30;77.72
65394;BME280;52002;49.760;6.512;2023-12-28T13:09:03;100017.86;;;11.35;77.33